Time;durP1;ratioP1;P1;durP2;ratioP2;P2;SDS_P1;SDS_P2;PMS_P1;PMS_P2;Temp;Humidity;BMP_temperature;BMP_pressure;BME280_temperature;BME280_humidity;BME280_pressure;Samples;Min_cycle;Max_cycle;Signal;HPM_P1;HPM_P2
2023/12/22 00:01:58;;;;;;;8.33;1.50;;;;;;;-145.69;77.76;52339.44;4918909;29;20204;-78
2023/12/22 00:04:24;;;;;;;8.53;1.70;;;;;;;-145.69;77.71;52375.06;4918920;29;20207;-79
2023/12/22 00:06:52;;;;;;;8.57;1.30;;;;;;;-145.69;77.59;52323.59;4918745;29;20200;-79
2023/12/22 00:09:19;;;;;;;1.73;1.30;;;;;;;-145.69;78.22;52367.16;4918745;29;20314;-78
2023/12/22 00:11:45;;;;;;;3.73;1.00;;;;;;;-145.69;78.60;52341.41;4918629;29;20200;-79
2023/12/22 00:14:12;;;;;;;5.50;1.17;;;;;;;-145.69;88.65;52343.38;4918627;29;20243;-78
2023/12/22 00:16:38;;;;;;;2.40;1.00;;;;;;;-145.69;86.18;52345.38;4918468;29;20204;-78
2023/12/22 00:19:05;;;;;;;4.13;1.50;;;;;;;-145.69;82.48;52349.31;4918822;29;20204;-78
2023/12/22 00:21:32;;;;;;;4.03;1.30;;;;;;;-145.69;80.66;52381.00;4918869;29;20204;-78
2023/12/22 00:23:59;;;;;;;4.03;1.00;;;;;;;-145.69;79.80;52369.13;4918787;29;20648;-78
2023/12/22 00:26:26;;;;;;;2.17;0.87;;;;;;;-145.69;79.61;52379.03;4918733;29;20216;-78
2023/12/22 00:28:52;;;;;;;6.47;1.00;;;;;;;-145.69;79.70;52353.28;4918435;29;20204;-78
2023/12/22 00:31:19;;;;;;;2.57;1.20;;;;;;;-145.69;79.61;52353.28;4918693;29;20219;-79
2023/12/22 00:33:46;;;;;;;2.57;0.93;;;;;;;-145.69;79.51;52349.31;4918380;29;20231;-80
2023/12/22 00:36:12;;;;;;;2.63;1.03;;;;;;;-145.69;79.21;52371.13;4918054;29;20227;-79
2023/12/22 00:38:39;;;;;;;6.13;2.30;;;;;;;-145.69;79.00;52329.53;4918447;29;20208;-78
2023/12/22 00:41:07;;;;;;;7.13;1.47;;;;;;;-145.69;79.34;52357.25;4917873;29;20196;-79
2023/12/22 00:43:33;;;;;;;13.10;4.13;;;;;;;-145.69;79.23;52357.25;4918121;29;20290;-78
2023/12/22 00:46:03;;;;;;;5.07;1.53;;;;;;;-145.69;78.81;52363.19;4917935;29;20660;-79
2023/12/22 00:48:29;;;;;;;6.70;1.53;;;;;;;-145.69;78.14;52384.97;4917266;29;20549;-79
2023/12/22 00:50:56;;;;;;;6.53;1.37;;;;;;;-145.69;78.42;52365.16;4917865;29;20208;-78
2023/12/22 00:53:22;;;;;;;4.40;1.30;;;;;;;-145.69;78.31;52375.06;4917987;29;20579;-78
2023/12/22 00:55:49;;;;;;;11.67;1.67;;;;;;;-145.69;77.93;52359.22;4917896;29;20208;-79
2023/12/22 00:58:16;;;;;;;7.87;1.40;;;;;;;-145.69;77.96;52373.09;4917885;29;20656;-78
2023/12/22 01:00:43;;;;;;;10.93;1.47;;;;;;;-145.69;77.85;52345.38;4917980;29;20204;-79
2023/12/22 01:03:11;;;;;;;5.87;1.20;;;;;;;-145.69;78.28;52383.00;4917635;29;20295;-79
2023/12/22 01:05:38;;;;;;;4.13;1.30;;;;;;;-145.69;78.02;52373.09;4918056;29;20212;-79
2023/12/22 01:08:05;;;;;;;5.37;1.60;;;;;;;-145.69;78.16;52383.00;4917817;29;20261;-79
2023/12/22 01:10:31;;;;;;;8.63;1.63;;;;;;;-145.69;78.05;52367.16;4917351;29;20534;-79
2023/12/22 01:12:58;;;;;;;6.50;1.80;;;;;;;-145.69;77.88;52355.28;4916906;29;20232;-79
2023/12/22 01:15:26;;;;;;;5.30;1.60;;;;;;;-145.69;77.95;52361.22;4916611;29;20684;-80
2023/12/22 01:17:52;;;;;;;7.63;1.33;;;;;;;-145.69;77.86;52345.38;4916846;29;20263;-79
2023/12/22 01:20:18;;;;;;;11.23;1.80;;;;;;;-145.69;78.07;52375.06;4913829;29;20196;-79
2023/12/22 01:22:45;;;;;;;9.70;1.77;;;;;;;-145.69;78.38;52384.97;4917099;29;20208;-79
2023/12/22 01:25:11;;;;;;;5.17;1.50;;;;;;;-145.69;78.38;52361.22;4916917;29;20214;-79
2023/12/22 01:27:38;;;;;;;7.63;1.70;;;;;;;-145.69;78.38;52377.06;4917619;29;20208;-79
2023/12/22 01:30:05;;;;;;;6.57;2.10;;;;;;;-145.69;78.59;52349.31;4917253;29;20575;-79
2023/12/22 01:32:36;;;;;;;8.43;1.50;;;;;;;-145.69;79.06;52375.06;4917447;29;20210;-79
2023/12/22 01:35:06;;;;;;;9.00;1.50;;;;;;;-145.69;78.97;52353.28;4917515;29;20204;-78
2023/12/22 01:37:33;;;;;;;10.73;1.80;;;;;;;-145.69;79.43;52365.16;4917141;29;20290;-78
2023/12/22 01:39:59;;;;;;;4.60;1.33;;;;;;;-145.69;79.82;52365.16;4917113;29;20209;-78
2023/12/22 01:42:26;;;;;;;4.93;1.37;;;;;;;-145.69;80.54;52361.22;4916502;29;20201;-77
2023/12/22 01:44:52;;;;;;;11.87;1.67;;;;;;;-145.69;80.21;52355.28;4917295;29;20571;-79
2023/12/22 01:47:19;;;;;;;8.87;1.77;;;;;;;-145.69;81.28;52361.22;4916684;29;20287;-79
2023/12/22 01:49:47;;;;;;;4.03;1.30;;;;;;;-145.69;80.67;52402.78;4916961;29;20537;-78
2023/12/22 01:52:13;;;;;;;6.90;1.23;;;;;;;-145.69;81.74;52373.09;4916944;29;20567;-79
2023/12/22 01:54:40;;;;;;;3.87;1.37;;;;;;;-145.69;80.62;52396.84;4917263;29;20264;-78
2023/12/22 01:57:07;;;;;;;4.23;1.50;;;;;;;-145.69;81.09;52377.06;4917198;29;20200;-78
2023/12/22 01:59:35;;;;;;;3.33;1.30;;;;;;;-145.69;80.25;52349.31;4916167;29;20208;-79
2023/12/22 02:02:02;;;;;;;5.90;1.33;;;;;;;-145.69;81.04;52381.00;4916668;29;20207;-79
2023/12/22 02:04:31;;;;;;;3.97;1.67;;;;;;;-145.69;80.82;52369.13;4916805;29;20267;-79
2023/12/22 02:07:01;;;;;;;4.73;1.80;;;;;;;-145.69;81.13;52347.34;4916811;29;20267;-79
2023/12/22 02:09:28;;;;;;;11.03;1.83;;;;;;;-145.69;81.35;52365.16;4916888;29;20688;-78
2023/12/22 02:11:54;;;;;;;6.67;1.93;;;;;;;-145.69;81.88;52412.69;4916383;29;20469;-78
2023/12/22 02:14:21;;;;;;;8.10;1.80;;;;;;;-145.69;81.91;52337.44;4916736;29;20231;-79
2023/12/22 02:16:54;;;;;;;7.73;2.10;;;;;;;-145.69;81.72;52365.16;4916440;29;20571;-79
2023/12/22 02:19:34;;;;;;;7.93;1.80;;;;;;;-145.69;81.15;52351.31;4915327;29;20207;-79
2023/12/22 02:22:02;;;;;;;11.03;1.77;;;;;;;-145.69;79.73;52359.22;4916671;29;20196;-79
2023/12/22 02:24:31;;;;;;;5.90;1.53;;;;;;;-145.69;79.76;52357.25;4916485;29;20604;-79
2023/12/22 02:27:04;;;;;;;10.63;1.90;;;;;;;-145.69;79.47;52361.22;4916728;29;20303;-78
2023/12/22 02:29:34;;;;;;;6.33;1.70;;;;;;;-145.69;78.83;52345.38;4916712;29;20208;-79
2023/12/22 02:32:05;;;;;;;4.90;1.27;;;;;;;-145.69;78.90;52379.03;4920020;29;20681;-79
2023/12/22 02:34:36;;;;;;;2.90;0.80;;;;;;;-145.69;78.26;52392.91;4935450;29;20737;-79
2023/12/22 02:37:05;;;;;;;3.65;1.00;;;;;;;-145.69;79.27;52377.06;4922628;29;20821;-77
2023/12/22 02:39:33;;;;;;;2.67;1.10;;;;;;;-145.69;78.21;52388.94;4916470;29;20724;-78
2023/12/22 02:42:00;;;;;;;1.73;0.80;;;;;;;-145.69;78.19;52367.16;4916498;29;20644;-78
2023/12/22 02:44:28;;;;;;;2.43;0.90;;;;;;;-145.69;77.33;52353.28;4916325;29;20200;-79
2023/12/22 02:46:54;;;;;;;1.87;1.03;;;;;;;-145.69;78.21;52377.06;4899479;29;20291;-79
2023/12/22 02:49:21;;;;;;;1.90;0.97;;;;;;;-145.69;77.93;52386.97;4916536;29;20211;-79
2023/12/22 02:51:47;;;;;;;3.10;1.17;;;;;;;-145.69;77.81;52373.09;4916352;29;20212;-80
2023/12/22 02:54:14;;;;;;;2.17;0.90;;;;;;;-145.69;77.74;52384.97;4916357;29;20240;-79
2023/12/22 02:56:42;;;;;;;2.13;1.30;;;;;;;-145.69;77.78;52349.31;4916487;29;20687;-79
2023/12/22 02:59:09;;;;;;;8.43;1.17;;;;;;;-145.69;77.37;52353.28;4916668;29;20208;-78
2023/12/22 03:01:35;;;;;;;2.93;0.80;;;;;;;-145.69;77.06;52381.00;4916242;29;20240;-78
2023/12/22 03:04:02;;;;;;;2.47;0.90;;;;;;;-145.69;77.20;52357.25;4916543;29;20212;-79
2023/12/22 03:06:28;;;;;;;2.90;1.00;;;;;;;-145.69;77.35;52379.03;4916211;29;20233;-80
2023/12/22 03:08:55;;;;;;;2.07;0.90;;;;;;;-145.69;77.89;52369.13;4916459;29;20243;-80
2023/12/22 03:11:21;;;;;;;5.07;1.30;;;;;;;-145.69;77.47;52365.16;4917492;29;20660;-80
2023/12/22 03:13:49;;;;;;;6.70;1.47;;;;;;;-145.69;78.35;52386.97;4919791;29;20231;-79
2023/12/22 03:16:15;;;;;;;8.07;1.30;;;;;;;-145.69;78.13;52363.19;4919812;29;20211;-79
2023/12/22 03:18:42;;;;;;;8.83;1.70;;;;;;;-145.69;78.09;52365.16;4919829;29;20586;-77
2023/12/22 03:21:08;;;;;;;8.30;1.93;;;;;;;-145.69;78.42;52381.00;4919676;29;20200;-78
2023/12/22 03:23:35;;;;;;;11.80;1.87;;;;;;;-145.69;78.90;52381.00;4919585;29;20208;-78
2023/12/22 03:26:04;;;;;;;11.83;1.77;;;;;;;-145.69;78.60;52373.09;4919345;29;20231;-79
2023/12/22 03:28:33;;;;;;;16.63;2.00;;;;;;;-145.69;78.22;52388.94;4903896;29;20229;-77
2023/12/22 03:31:01;;;;;;;8.20;2.33;;;;;;;-145.69;78.34;52373.09;4900776;29;20220;-78
2023/12/22 03:33:27;;;;;;;12.60;2.17;;;;;;;-145.69;78.15;52367.16;4919420;29;20232;-78
2023/12/22 03:35:54;;;;;;;15.20;2.30;;;;;;;-145.69;78.40;52390.91;4919210;29;20552;-78
2023/12/22 03:38:20;;;;;;;12.57;1.90;;;;;;;-145.69;78.60;52394.88;4919434;29;20201;-78
2023/12/22 03:40:47;;;;;;;13.10;2.03;;;;;;;-145.69;78.58;52365.16;4919047;29;20216;-77
2023/12/22 03:43:13;;;;;;;16.63;2.77;;;;;;;-145.69;78.84;52359.22;4919149;29;20212;-77
2023/12/22 03:45:40;;;;;;;8.60;2.33;;;;;;;-145.69;78.81;52408.75;4919282;29;20219;-78
2023/12/22 03:48:08;;;;;;;10.07;2.03;;;;;;;-145.69;79.32;52383.00;4919459;29;20208;-78
2023/12/22 03:50:34;;;;;;;10.10;1.90;;;;;;;-145.69;78.43;52375.06;4919019;29;20212;-78
2023/12/22 03:53:01;;;;;;;16.43;2.30;;;;;;;-145.69;78.98;52383.00;4918997;29;20212;-78
2023/12/22 03:55:27;;;;;;;10.67;2.20;;;;;;;-145.69;78.33;52381.00;4918867;29;20215;-78
2023/12/22 03:57:53;;;;;;;12.90;2.03;;;;;;;-145.69;78.38;52381.00;4919080;29;20211;-79
2023/12/22 04:00:20;;;;;;;17.20;1.90;;;;;;;-145.69;78.16;52369.13;4918384;29;20208;-79
2023/12/22 04:02:49;;;;;;;9.80;2.20;;;;;;;-145.69;77.93;52361.22;4918952;29;20259;-78
2023/12/22 04:05:17;;;;;;;6.27;1.90;;;;;;;-145.69;78.37;52408.75;4918543;29;20211;-79
2023/12/22 04:07:46;;;;;;;15.30;2.30;;;;;;;-145.69;78.41;52347.34;4918457;29;20694;-79
2023/12/22 04:10:12;;;;;;;13.37;1.90;;;;;;;-145.69;78.77;52390.91;4918554;29;20236;-78
2023/12/22 04:12:39;;;;;;;10.80;2.13;;;;;;;-145.69;78.72;52365.16;4918482;29;20204;-78
2023/12/22 04:15:07;;;;;;;10.27;2.20;;;;;;;-145.69;79.09;52377.06;4918580;29;20239;-78
2023/12/22 04:17:33;;;;;;;12.50;2.40;;;;;;;-145.69;79.07;52377.06;4918635;29;20208;-79
2023/12/22 04:19:59;;;;;;;8.93;2.33;;;;;;;-145.69;78.65;52355.28;4918829;29;20208;-78
2023/12/22 04:22:27;;;;;;;12.17;2.30;;;;;;;-145.69;78.91;52361.22;4917987;29;20616;-77
2023/12/22 04:24:54;;;;;;;10.67;2.03;;;;;;;-145.69;78.23;52386.97;4918636;29;20212;-77
2023/12/22 04:27:20;;;;;;;17.03;2.23;;;;;;;-145.69;78.48;52404.78;4918934;29;20208;-78
2023/12/22 04:29:47;;;;;;;12.27;1.70;;;;;;;-145.69;78.14;52341.41;4918605;29;20203;-78
2023/12/22 04:32:13;;;;;;;11.30;1.97;;;;;;;-145.69;77.63;52377.06;4918417;29;20208;-78
2023/12/22 04:34:39;;;;;;;9.87;1.80;;;;;;;-145.69;77.47;52361.22;4918004;29;20690;-78
2023/12/22 04:37:06;;;;;;;8.97;2.60;;;;;;;-145.69;77.70;52381.00;4918138;29;20259;-78
2023/12/22 04:39:34;;;;;;;10.13;2.00;;;;;;;-145.69;77.96;52394.88;4918142;29;20208;-78
2023/12/22 04:42:00;;;;;;;7.60;2.10;;;;;;;-145.69;77.53;52384.97;4917735;29;20212;-78
2023/12/22 04:44:27;;;;;;;8.27;3.17;;;;;;;-145.69;77.23;52396.84;4918194;29;20211;-78
2023/12/22 04:46:53;;;;;;;9.50;2.07;;;;;;;-145.69;77.50;52392.91;4918167;29;20204;-78
2023/12/22 04:49:20;;;;;;;12.37;3.10;;;;;;;-145.69;77.46;52384.97;4918009;29;20561;-79
2023/12/22 04:51:46;;;;;;;10.27;2.07;;;;;;;-145.69;77.23;52402.78;4917907;29;20201;-78
2023/12/22 04:54:12;;;;;;;10.60;2.50;;;;;;;-145.69;77.42;52384.97;4918074;29;20235;-79
2023/12/22 04:56:40;;;;;;;9.73;1.80;;;;;;;-145.69;78.60;52375.06;4918113;29;20211;-79
2023/12/22 04:59:07;;;;;;;13.77;2.47;;;;;;;-145.69;78.09;52404.78;4918035;29;20309;-78
2023/12/22 05:01:34;;;;;;;12.47;2.10;;;;;;;-145.69;78.26;52398.84;4918117;29;20637;-78
2023/12/22 05:04:01;;;;;;;25.33;3.40;;;;;;;-145.69;78.28;52357.25;4917553;29;20248;-79
2023/12/22 05:06:28;;;;;;;14.43;2.30;;;;;;;-145.69;78.70;52396.84;4917712;29;20537;-80
2023/12/22 05:08:56;;;;;;;14.90;2.50;;;;;;;-145.69;77.80;52400.81;4917688;29;20275;-79
2023/12/22 05:11:22;;;;;;;9.47;2.10;;;;;;;-145.69;77.59;52375.06;4917004;29;20291;-78
2023/12/22 05:13:50;;;;;;;13.10;1.90;;;;;;;-145.69;76.99;52398.84;4916850;29;20242;-78
2023/12/22 05:16:16;;;;;;;11.97;2.37;;;;;;;-145.69;76.72;52394.88;4917581;29;20219;-79
2023/12/22 05:18:43;;;;;;;8.60;1.93;;;;;;;-145.69;75.97;52383.00;4917928;29;20223;-79
2023/12/22 05:21:13;;;;;;;17.93;2.50;;;;;;;-145.69;76.34;52381.00;4917434;29;20204;-78
2023/12/22 05:23:39;;;;;;;8.17;2.10;;;;;;;-145.69;75.55;52341.41;4917283;29;20567;-79
2023/12/22 05:26:06;;;;;;;14.27;2.37;;;;;;;-145.69;75.65;52381.00;4914590;29;20600;-79
2023/12/22 05:28:33;;;;;;;17.57;2.03;;;;;;;-145.69;75.57;52369.13;4917490;29;20299;-79
2023/12/22 05:31:01;;;;;;;9.20;2.63;;;;;;;-145.69;75.22;52353.28;4917106;29;20557;-79
2023/12/22 05:33:27;;;;;;;18.47;2.70;;;;;;;-145.69;75.26;52388.94;4916706;29;20204;-79
2023/12/22 05:35:53;;;;;;;9.23;2.20;;;;;;;-145.69;75.12;52388.94;4917039;29;20231;-78
2023/12/22 05:38:20;;;;;;;7.63;1.63;;;;;;;-145.69;74.62;52371.13;4917201;29;20660;-79
2023/12/22 05:40:48;;;;;;;15.47;2.03;;;;;;;-145.69;74.66;52392.91;4917048;29;20204;-79
2023/12/22 05:43:14;;;;;;;16.23;2.53;;;;;;;-145.69;74.97;52388.94;4917200;29;20196;-79
2023/12/22 05:45:41;;;;;;;7.33;2.03;;;;;;;-145.69;75.61;52377.06;4916790;29;20200;-79
2023/12/22 05:48:09;;;;;;;16.60;3.40;;;;;;;-145.69;76.15;52369.13;4916951;29;20295;-78
2023/12/22 05:50:35;;;;;;;9.43;2.27;;;;;;;-145.69;75.57;52373.09;4916926;29;20275;-79
2023/12/22 05:53:02;;;;;;;13.20;2.73;;;;;;;-145.69;75.56;52388.94;4916186;29;20208;-80
2023/12/22 05:55:29;;;;;;;20.50;2.43;;;;;;;-145.69;75.52;52379.03;4916895;29;20240;-78
2023/12/22 05:57:55;;;;;;;18.20;2.60;;;;;;;-145.69;75.87;52392.91;4916929;29;20255;-78
2023/12/22 06:00:22;;;;;;;18.30;2.30;;;;;;;-145.69;75.98;52349.31;4916516;29;20247;-78
2023/12/22 06:02:49;;;;;;;16.13;2.13;;;;;;;-145.69;75.70;52369.13;4917184;29;20651;-78
2023/12/22 06:05:17;;;;;;;14.23;2.40;;;;;;;-145.69;76.26;52343.38;4916639;29;20560;-78
2023/12/22 06:07:43;;;;;;;17.00;2.50;;;;;;;-145.69;75.52;52359.22;4916813;29;20215;-78
2023/12/22 06:10:10;;;;;;;17.23;2.30;;;;;;;-145.69;75.87;52379.03;4916591;29;20699;-78
2023/12/22 06:12:37;;;;;;;11.43;2.23;;;;;;;-145.69;76.02;52371.13;4914592;29;20200;-78
2023/12/22 06:15:04;;;;;;;15.70;2.37;;;;;;;-145.69;75.68;52381.00;4916023;29;20322;-77
2023/12/22 06:17:30;;;;;;;19.90;1.97;;;;;;;-145.69;76.47;52333.47;4916532;29;20200;-78
2023/12/22 06:19:57;;;;;;;14.37;2.07;;;;;;;-145.69;76.09;52373.09;4916632;29;20196;-78
2023/12/22 06:22:24;;;;;;;8.50;1.80;;;;;;;-145.69;75.45;52396.84;4916413;29;20208;-78
2023/12/22 06:24:51;;;;;;;15.43;2.57;;;;;;;-145.69;75.51;52390.91;4916585;29;20670;-79
2023/12/22 06:27:17;;;;;;;12.57;2.47;;;;;;;-145.69;75.75;52377.06;4916421;29;20204;-79
2023/12/22 06:29:44;;;;;;;14.30;1.87;;;;;;;-145.69;75.71;52369.13;4915929;29;20232;-80
2023/12/22 06:32:12;;;;;;;8.13;2.20;;;;;;;-145.69;75.90;52367.16;4916629;29;20245;-80
2023/12/22 06:34:41;;;;;;;20.23;2.63;;;;;;;-145.69;76.02;52367.16;4916517;29;20279;-80
2023/12/22 06:37:08;;;;;;;10.40;2.20;;;;;;;-145.69;75.92;52418.63;4916484;29;20207;-78
2023/12/22 06:39:38;;;;;;;12.77;2.47;;;;;;;-145.69;75.75;52383.00;4916366;29;20235;-80
2023/12/22 06:42:10;;;;;;;9.37;2.03;;;;;;;-145.69;75.42;52384.97;4915234;29;20200;-78
2023/12/22 06:44:37;;;;;;;9.03;1.77;;;;;;;-145.69;75.40;52377.06;4916558;29;20240;-78
2023/12/22 06:47:04;;;;;;;15.03;2.20;;;;;;;-145.69;75.18;52377.06;4919920;29;20260;-78
2023/12/22 06:49:33;;;;;;;16.83;2.70;;;;;;;-145.69;76.63;52402.78;4917937;29;20447;-78
2023/12/22 06:52:00;;;;;;;12.33;2.60;;;;;;;-145.69;75.62;52361.22;4920078;29;20223;-77
2023/12/22 06:54:26;;;;;;;9.97;2.33;;;;;;;-145.69;75.44;52361.22;4919921;29;20223;-78
2023/12/22 06:56:55;;;;;;;21.73;2.40;;;;;;;-145.69;74.93;52406.75;4920068;29;20214;-78
2023/12/22 06:59:21;;;;;;;14.07;2.00;;;;;;;-145.69;74.53;52371.13;4920016;29;20238;-77
2023/12/22 07:01:48;;;;;;;12.13;2.10;;;;;;;-145.69;75.00;52375.06;4920077;29;21002;-77
2023/12/22 07:04:14;;;;;;;16.67;2.57;;;;;;;-145.69;75.12;52361.22;4919904;29;20215;-78
2023/12/22 07:06:41;;;;;;;17.07;2.80;;;;;;;-145.69;75.23;52400.81;4919821;29;20667;-78
2023/12/22 07:09:33;;;;;;;15.37;2.40;;;;;;;-145.69;74.58;52353.28;4919667;29;20354;-78
2023/12/22 07:12:01;;;;;;;15.17;2.77;;;;;;;-145.69;74.98;52357.25;4919459;29;20204;-78
2023/12/22 07:14:27;;;;;;;8.47;2.20;;;;;;;-145.69;74.72;52365.16;4919850;29;20235;-78
2023/12/22 07:16:54;;;;;;;25.93;3.30;;;;;;;-145.69;74.37;52367.16;4911141;29;20489;-78
2023/12/22 07:19:20;;;;;;;13.37;2.90;;;;;;;-145.69;74.68;52369.13;4900759;29;20240;-78
2023/12/22 07:21:47;;;;;;;12.97;2.30;;;;;;;-145.69;74.95;52337.44;4900733;29;20246;-79
2023/12/22 07:24:13;;;;;;;12.83;2.73;;;;;;;-145.69;75.23;52388.94;4902946;29;20687;-77
2023/12/22 07:26:40;;;;;;;17.20;2.70;;;;;;;-145.69;75.09;52392.91;4900623;29;20735;-78
2023/12/22 07:29:08;;;;;;;17.90;2.60;;;;;;;-145.69;75.23;52390.91;4900701;29;20295;-78
2023/12/22 07:31:35;;;;;;;11.90;2.80;;;;;;;-145.69;75.42;52369.13;4916400;29;20204;-79
2023/12/22 07:34:01;;;;;;;12.37;2.27;;;;;;;-145.69;75.39;52359.22;4919274;29;20204;-80
2023/12/22 07:36:28;;;;;;;17.90;2.37;;;;;;;-145.69;75.84;52373.09;4919404;29;20236;-79
2023/12/22 07:38:57;;;;;;;13.23;1.90;;;;;;;-145.69;75.60;52377.06;4919235;29;20204;-79
2023/12/22 07:41:23;;;;;;;16.57;2.10;;;;;;;-145.69;76.14;52345.38;4919486;29;20212;-79
2023/12/22 07:43:50;;;;;;;9.37;2.07;;;;;;;-145.69;75.92;52371.13;4901970;29;20201;-78
2023/12/22 07:46:22;;;;;;;17.40;2.40;;;;;;;-145.69;75.74;52367.16;4900544;29;20240;-79
2023/12/22 07:48:51;;;;;;;10.57;2.10;;;;;;;-145.69;76.19;52363.19;4901124;29;20215;-78
2023/12/22 07:51:22;;;;;;;12.27;2.30;;;;;;;-145.69;75.30;52369.13;4918677;29;20672;-79
2023/12/22 07:53:49;;;;;;;13.30;2.13;;;;;;;-145.69;75.04;52341.41;4919244;29;20210;-79
2023/12/22 07:56:15;;;;;;;18.33;2.37;;;;;;;-145.69;74.83;52373.09;4918594;29;20632;-79
2023/12/22 07:58:42;;;;;;;8.03;2.07;;;;;;;-145.69;75.37;52363.19;4919062;29;20668;-80
2023/12/22 08:01:08;;;;;;;10.20;2.33;;;;;;;-145.69;75.32;52367.16;4918943;29;20232;-80
2023/12/22 08:03:39;;;;;;;8.83;1.93;;;;;;;-145.69;75.52;52365.16;4918742;29;20212;-79
2023/12/22 08:06:06;;;;;;;12.63;4.00;;;;;;;-145.69;75.50;52341.41;4919003;29;20204;-79
2023/12/22 08:08:33;;;;;;;16.17;2.57;;;;;;;-145.69;75.66;52398.84;4919086;29;20240;-79
2023/12/22 08:11:05;;;;;;;17.87;2.73;;;;;;;-145.69;75.03;52384.97;4918923;29;20220;-79
2023/12/22 08:13:32;;;;;;;11.87;1.80;;;;;;;-145.69;75.03;52339.44;4903942;29;20208;-79
2023/12/22 08:15:58;;;;;;;15.73;1.83;;;;;;;-145.69;75.12;52379.03;4899607;29;20240;-79
2023/12/22 08:18:25;;;;;;;6.50;2.17;;;;;;;-145.69;75.36;52381.00;4899637;29;20212;-79
2023/12/22 08:20:55;;;;;;;18.97;2.20;;;;;;;-145.69;74.93;52377.06;4905578;29;20208;-79
2023/12/22 08:23:24;;;;;;;12.93;2.10;;;;;;;-145.69;74.71;52379.03;4918347;29;20567;-79
2023/12/22 08:25:51;;;;;;;10.27;1.80;;;;;;;-145.69;74.97;52373.09;4918629;29;20212;-79
2023/12/22 08:28:17;;;;;;;9.20;2.00;;;;;;;-145.69;74.60;52428.53;4918229;29;20208;-79
2023/12/22 08:30:44;;;;;;;18.40;2.20;;;;;;;-145.69;74.81;52390.91;4918467;29;21363;-79
2023/12/22 08:33:13;;;;;;;10.83;1.80;;;;;;;-145.69;74.26;52379.03;4918488;29;20208;-78
2023/12/22 08:35:40;;;;;;;7.80;1.53;;;;;;;-145.69;74.46;52392.91;4917621;29;20271;-78
2023/12/22 08:38:08;;;;;;;6.37;1.60;;;;;;;-145.69;74.45;52357.25;4918374;29;20584;-79
2023/12/22 08:40:35;;;;;;;9.57;1.70;;;;;;;-145.69;74.25;52345.38;4917938;29;20200;-79
2023/12/22 08:43:02;;;;;;;8.53;1.60;;;;;;;-145.69;75.36;52375.06;4917893;29;20263;-79
2023/12/22 08:45:29;;;;;;;12.10;2.10;;;;;;;-145.69;75.65;52381.00;4918156;29;20212;-79
2023/12/22 08:47:56;;;;;;;5.87;2.00;;;;;;;-145.69;75.14;52379.03;4918180;29;20663;-79
2023/12/22 08:50:26;;;;;;;5.97;2.20;;;;;;;-145.69;74.98;52375.06;4918252;29;20211;-79
2023/12/22 08:52:53;;;;;;;10.63;2.00;;;;;;;-145.69;75.21;52386.97;4917320;29;20196;-79
2023/12/22 08:55:21;;;;;;;7.23;1.63;;;;;;;-145.69;76.24;52369.13;4917095;29;20295;-80
2023/12/22 08:57:47;;;;;;;7.40;1.87;;;;;;;-145.69;75.25;52373.09;4917212;29;20655;-79
2023/12/22 09:00:15;;;;;;;9.03;1.93;;;;;;;-145.69;75.70;52384.97;4900259;29;20204;-79
2023/12/22 09:02:42;;;;;;;7.93;1.77;;;;;;;-145.69;75.47;52361.22;4916713;29;20192;-79
2023/12/22 09:05:08;;;;;;;6.93;1.47;;;;;;;-145.69;76.60;52379.03;4917565;29;20200;-79
2023/12/22 09:07:39;;;;;;;10.80;1.60;;;;;;;-145.69;76.51;52400.81;4917046;29;20201;-79
2023/12/22 09:10:06;;;;;;;5.03;1.53;;;;;;;-145.69;76.94;52392.91;4917178;29;20227;-79
2023/12/22 09:12:34;;;;;;;5.67;1.50;;;;;;;-145.69;76.41;52361.22;4917677;29;20240;-80
2023/12/22 09:15:00;;;;;;;4.40;1.57;;;;;;;-145.69;76.43;52388.94;4917583;29;20208;-79
2023/12/22 09:17:27;;;;;;;6.47;1.60;;;;;;;-145.69;76.85;52373.09;4917834;29;20256;-78
2023/12/22 09:19:54;;;;;;;10.50;1.77;;;;;;;-145.69;76.49;52373.09;4917701;29;20211;-79
2023/12/22 09:22:21;;;;;;;7.20;1.87;;;;;;;-145.69;76.59;52392.91;4916784;29;20196;-79
2023/12/22 09:24:48;;;;;;;10.83;1.93;;;;;;;-145.69;76.66;52388.94;4914920;29;20199;-80
2023/12/22 09:27:15;;;;;;;8.23;1.77;;;;;;;-145.69;76.20;52416.66;4917122;29;20288;-78
2023/12/22 09:29:43;;;;;;;11.20;2.00;;;;;;;-145.69;76.57;52365.16;4917509;29;20200;-78
2023/12/22 09:32:09;;;;;;;8.97;1.50;;;;;;;-145.69;76.63;52361.22;4916821;29;20211;-78
2023/12/22 09:34:36;;;;;;;6.63;1.30;;;;;;;-145.69;76.75;52384.97;4917279;29;20239;-78
2023/12/22 09:37:03;;;;;;;4.73;1.53;;;;;;;-145.69;76.46;52379.03;4917114;29;20699;-79
2023/12/22 09:39:31;;;;;;;10.07;2.10;;;;;;;-145.69;76.24;52381.00;4917212;29;20659;-79
2023/12/22 09:41:58;;;;;;;7.00;1.53;;;;;;;-145.69;76.43;52379.03;4917265;29;20215;-79
2023/12/22 09:44:27;;;;;;;7.13;1.77;;;;;;;-145.69;76.47;52369.13;4917151;29;20203;-79
2023/12/22 09:46:58;;;;;;;6.10;1.77;;;;;;;-145.69;77.17;52351.31;4916950;29;20238;-79
2023/12/22 09:49:27;;;;;;;8.63;1.97;;;;;;;-145.69;77.10;52392.91;4917008;29;20246;-78
2023/12/22 09:51:55;;;;;;;7.60;2.13;;;;;;;-145.69;76.44;52371.13;4916228;29;20215;-79
2023/12/22 09:54:25;;;;;;;3.10;1.83;;;;;;;-145.69;76.53;52365.16;4898223;29;20207;-79
2023/12/22 09:56:52;;;;;;;8.33;1.93;;;;;;;-145.69;77.26;52375.06;4912505;29;20227;-79
2023/12/22 09:59:22;;;;;;;13.23;2.00;;;;;;;-145.69;77.05;52365.16;4916891;29;20211;-78
2023/12/22 10:01:50;;;;;;;8.63;1.73;;;;;;;-145.69;76.26;52379.03;4916788;29;20211;-78
2023/12/22 10:04:18;;;;;;;9.37;2.20;;;;;;;-145.69;76.46;52384.97;4917041;29;20568;-79
2023/12/22 10:06:49;;;;;;;13.53;2.30;;;;;;;-145.69;75.93;52353.28;4916497;29;20200;-79
2023/12/22 10:09:17;;;;;;;9.77;2.23;;;;;;;-145.69;75.97;52365.16;4916464;29;20706;-79
2023/12/22 10:11:45;;;;;;;14.27;1.80;;;;;;;-145.69;75.78;52353.28;4916881;29;20204;-78
2023/12/22 10:14:13;;;;;;;9.13;2.37;;;;;;;-145.69;74.51;52333.47;4916754;29;20208;-78
2023/12/22 10:16:40;;;;;;;16.57;3.50;;;;;;;-145.69;75.43;52384.97;4916641;29;20283;-78
2023/12/22 10:19:08;;;;;;;17.37;5.17;;;;;;;-145.69;74.91;52349.31;4916413;29;20215;-78
2023/12/22 10:21:36;;;;;;;7.80;2.23;;;;;;;-145.69;75.46;52383.00;4916768;29;20208;-78
2023/12/22 10:24:03;;;;;;;15.80;3.03;;;;;;;-145.69;76.05;52384.97;4916394;29;20469;-78
2023/12/22 10:26:29;;;;;;;12.03;2.53;;;;;;;-145.69;75.90;52377.06;4916691;29;20211;-78
2023/12/22 10:28:56;;;;;;;19.50;2.90;;;;;;;-145.69;75.84;52394.88;4916564;29;20212;-77
2023/12/22 10:31:25;;;;;;;19.53;2.97;;;;;;;-145.69;75.17;52365.16;4914721;29;20516;-77
2023/12/22 10:33:52;;;;;;;28.00;3.57;;;;;;;-145.69;75.38;52386.97;4915184;29;20649;-78
2023/12/22 10:36:18;;;;;;;22.63;3.90;;;;;;;-145.69;75.28;52377.06;4916216;29;20235;-78
2023/12/22 10:38:46;;;;;;;23.33;4.23;;;;;;;-145.69;75.63;52383.00;4916049;29;20219;-77
2023/12/22 10:41:12;;;;;;;16.53;3.13;;;;;;;-145.69;74.87;52408.75;4916400;29;20263;-78
2023/12/22 10:43:40;;;;;;;24.83;3.20;;;;;;;-145.69;75.08;52384.97;4916165;29;20571;-78
2023/12/22 10:46:07;;;;;;;11.67;2.43;;;;;;;-145.69;75.45;52321.59;4916499;29;20200;-78
2023/12/22 10:48:34;;;;;;;12.73;2.20;;;;;;;-145.69;75.46;52357.25;4916587;29;20233;-78
2023/12/22 10:51:00;;;;;;;19.03;2.67;;;;;;;-145.69;75.08;52377.06;4916384;29;20216;-78
2023/12/22 10:53:27;;;;;;;15.87;3.70;;;;;;;-145.69;74.76;52363.19;4916153;29;20200;-77
2023/12/22 10:55:55;;;;;;;13.57;2.30;;;;;;;-145.69;74.80;52369.13;4916122;29;20280;-77
2023/12/22 10:58:22;;;;;;;13.87;2.80;;;;;;;-145.69;74.40;52361.22;4915996;29;20212;-77
2023/12/22 11:00:51;;;;;;;11.63;2.77;;;;;;;-145.69;74.58;52367.16;4915714;29;20207;-77
2023/12/22 11:03:19;;;;;;;9.07;3.03;;;;;;;-145.69;74.63;52357.25;4903065;29;20624;-78
2023/12/22 11:05:48;;;;;;;14.83;2.20;;;;;;;-145.69;74.05;52377.06;4915923;29;20686;-79
2023/12/22 11:08:16;;;;;;;8.07;2.10;;;;;;;-145.69;74.28;52377.06;4915977;29;20204;-79
2023/12/22 11:10:45;;;;;;;10.37;1.87;;;;;;;-145.69;74.54;52386.97;4915949;29;20208;-78
2023/12/22 11:13:13;;;;;;;8.87;2.60;;;;;;;-145.69;74.20;52384.97;4915505;29;20206;-79
2023/12/22 11:15:41;;;;;;;10.53;2.40;;;;;;;-145.69;73.99;52381.00;4915912;29;20326;-79